createdAt,value
2017-12-22T00:01:16.175Z,102877.42
2017-12-22T00:03:43.874Z,102881.44
2017-12-22T00:06:11.504Z,102877.42
2017-12-22T00:08:39.180Z,102873.56
2017-12-22T00:11:06.796Z,102871.05
2017-12-22T00:13:34.486Z,102872.85
2017-12-22T00:16:02.116Z,102876.86
2017-12-22T00:18:29.780Z,102880.20
2017-12-22T00:20:57.452Z,102884.09
2017-12-22T00:23:25.081Z,102887.71
2017-12-22T00:25:52.765Z,102879.58
2017-12-22T00:28:20.412Z,102869.79
2017-12-22T00:30:48.088Z,102869.96
2017-12-22T00:33:15.707Z,102871.66
2017-12-22T00:35:43.450Z,102874.28
2017-12-22T00:38:11.073Z,102875.67
2017-12-22T00:40:38.747Z,102876.09
2017-12-22T00:43:06.368Z,102877.79
2017-12-22T00:45:34.061Z,102873.11
2017-12-22T00:48:01.693Z,102865.51
2017-12-22T00:50:29.449Z,102863.59
2017-12-22T00:52:57.078Z,102862.09
2017-12-22T00:55:24.811Z,102856.98
2017-12-22T00:57:52.502Z,102857.16
2017-12-22T01:00:20.172Z,102854.67
2017-12-22T01:02:47.876Z,102853.60
2017-12-22T01:05:15.633Z,102857.33
2017-12-22T01:07:43.327Z,102856.68
2017-12-22T01:10:11.018Z,102862.50
2017-12-22T01:12:38.756Z,102857.39
2017-12-22T01:15:06.488Z,102855.47
2017-12-22T01:17:39.937Z,102850.78
2017-12-22T01:20:07.615Z,102858.13
2017-12-22T01:22:35.342Z,102855.22
2017-12-22T01:25:03.047Z,102857.45
2017-12-22T01:27:30.771Z,102859.54
2017-12-22T01:29:58.456Z,102858.16
2017-12-22T01:32:26.200Z,102847.22
2017-12-22T01:34:53.901Z,102838.61
2017-12-22T01:37:21.638Z,102843.86
2017-12-22T01:39:49.320Z,102848.83
2017-12-22T01:42:17.085Z,102839.39
2017-12-22T01:44:44.735Z,102846.99
2017-12-22T01:47:12.471Z,102853.42
2017-12-22T01:49:40.168Z,102846.20
2017-12-22T01:52:07.904Z,102842.53
2017-12-22T01:54:35.585Z,102847.05
2017-12-22T01:57:03.225Z,102847.47
2017-12-22T01:59:30.904Z,102848.54
2017-12-22T02:01:58.638Z,102851.09
2017-12-22T02:04:26.328Z,102853.71
2017-12-22T02:06:53.955Z,102859.14
2017-12-22T02:09:21.684Z,102850.83
2017-12-22T02:11:49.380Z,102854.02
2017-12-22T02:14:17.128Z,102846.79
2017-12-22T02:16:44.814Z,102841.45
2017-12-22T02:19:12.556Z,102848.59
2017-12-22T02:21:40.191Z,102841.25
2017-12-22T02:24:07.933Z,102841.19
2017-12-22T02:26:35.642Z,102836.81
2017-12-22T02:29:03.328Z,102841.77
2017-12-22T02:31:30.946Z,102838.14
2017-12-22T02:33:58.684Z,102853.65
2017-12-22T02:36:26.363Z,102862.16
2017-12-22T02:38:54.069Z,102858.71
2017-12-22T02:41:21.768Z,102854.73
2017-12-22T02:43:49.477Z,102854.67
2017-12-22T02:46:17.213Z,102849.77
2017-12-22T02:48:44.891Z,102853.48
2017-12-22T02:51:12.573Z,102848.66
2017-12-22T02:53:40.187Z,102851.96
2017-12-22T02:56:07.923Z,102849.20
2017-12-22T02:58:35.623Z,102841.45
2017-12-22T03:01:03.468Z,102831.03
2017-12-22T03:03:31.163Z,102832.05
2017-12-22T03:05:58.911Z,102831.09
2017-12-22T03:08:26.603Z,102826.46
2017-12-22T03:10:54.332Z,102832.11
2017-12-22T03:13:22.019Z,102830.98
2017-12-22T03:15:49.766Z,102828.63
2017-12-22T03:18:17.447Z,102825.36
2017-12-22T03:20:45.126Z,102824.29
2017-12-22T03:23:12.820Z,102827.48
2017-12-22T03:25:40.560Z,102829.23
2017-12-22T03:28:08.246Z,102828.81
2017-12-22T03:30:36.040Z,102834.03
2017-12-22T03:33:03.786Z,102841.73
2017-12-22T03:35:31.480Z,102842.42
2017-12-22T03:37:59.212Z,102847.22
2017-12-22T03:40:26.843Z,102847.95
2017-12-22T03:42:54.587Z,102858.06
2017-12-22T03:45:22.274Z,102853.13
2017-12-22T03:47:50.021Z,102851.59
2017-12-22T03:50:17.722Z,102848.77
2017-12-22T03:52:45.456Z,102852.53
2017-12-22T03:55:13.147Z,102851.85
2017-12-22T03:57:40.821Z,102856.11
2017-12-22T04:00:08.451Z,102864.37
2017-12-22T04:02:36.252Z,102865.86
2017-12-22T04:05:03.958Z,102864.55
2017-12-22T04:07:31.655Z,102866.18
2017-12-22T04:09:59.340Z,102864.32
2017-12-22T04:12:27.065Z,102861.92
2017-12-22T04:14:54.804Z,102862.56
2017-12-22T04:17:22.510Z,102855.30
2017-12-22T04:19:50.248Z,102852.58
2017-12-22T04:22:17.873Z,102852.41
2017-12-22T04:24:45.611Z,102852.34
2017-12-22T04:27:13.293Z,102851.39
2017-12-22T04:29:41.045Z,102853.16
2017-12-22T04:32:08.759Z,102848.24
2017-12-22T04:34:36.450Z,102854.63
2017-12-22T04:37:04.147Z,102854.38
2017-12-22T04:39:31.776Z,102853.67
2017-12-22T04:41:59.540Z,102851.72
2017-12-22T04:44:27.161Z,102852.28
2017-12-22T04:46:54.823Z,102856.97
2017-12-22T04:49:22.470Z,102852.88
2017-12-22T04:51:50.160Z,102849.27
2017-12-22T04:54:17.849Z,102847.52
2017-12-22T04:56:45.519Z,102837.89
2017-12-22T04:59:13.262Z,102850.23
2017-12-22T05:01:41.044Z,102847.64
2017-12-22T05:04:08.738Z,102853.91
2017-12-22T05:06:36.469Z,102862.08
2017-12-22T05:09:04.107Z,102866.97
2017-12-22T05:11:31.822Z,102862.67
2017-12-22T05:13:59.510Z,102869.38
2017-12-22T05:16:27.258Z,102864.05
2017-12-22T05:18:54.918Z,102866.97
2017-12-22T05:21:22.667Z,102870.16
2017-12-22T05:23:50.384Z,102878.22
2017-12-22T05:26:18.119Z,102874.77
2017-12-22T05:28:45.823Z,102876.04
2017-12-22T05:31:13.595Z,102878.16
2017-12-22T05:33:41.217Z,102878.77
2017-12-22T05:36:08.885Z,102874.89
2017-12-22T05:38:36.565Z,102873.39
2017-12-22T05:41:04.318Z,102876.59
2017-12-22T05:43:31.931Z,102879.36
2017-12-22T05:45:59.641Z,102878.77
2017-12-22T05:48:27.392Z,102878.98
2017-12-22T05:50:55.086Z,102872.84
2017-12-22T05:53:22.823Z,102879.48
2017-12-22T05:55:50.516Z,102877.78
2017-12-22T05:58:18.255Z,102871.29
2017-12-22T06:00:45.988Z,102866.88
2017-12-22T06:03:13.726Z,102863.41
2017-12-22T06:05:41.362Z,102861.29
2017-12-22T06:08:09.103Z,102856.86
2017-12-22T06:10:36.795Z,102850.30
2017-12-22T06:13:04.558Z,102846.36
2017-12-22T06:15:32.247Z,102844.70
2017-12-22T06:17:59.911Z,102848.31
2017-12-22T06:20:27.560Z,102849.45
2017-12-22T06:22:55.319Z,102846.08
2017-12-22T06:25:23.004Z,102844.33
2017-12-22T06:27:50.689Z,102848.62
2017-12-22T06:30:18.361Z,102852.63
2017-12-22T06:32:46.077Z,102851.78
2017-12-22T06:35:13.818Z,102852.34
2017-12-22T06:37:41.452Z,102850.39
2017-12-22T06:40:09.140Z,102852.88
2017-12-22T06:42:36.823Z,102858.95
2017-12-22T06:45:04.561Z,102860.77
2017-12-22T06:47:32.258Z,102872.00
2017-12-22T06:50:00.008Z,102873.16
2017-12-22T06:52:27.716Z,102876.81
2017-12-22T06:54:55.460Z,102874.61
2017-12-22T06:57:23.152Z,102870.69
2017-12-22T06:59:50.883Z,102870.40
2017-12-22T07:02:18.627Z,102873.53
2017-12-22T07:04:46.362Z,102876.23
2017-12-22T07:07:14.072Z,102879.00
2017-12-22T07:09:41.820Z,102879.28
2017-12-22T07:12:09.447Z,102871.66
2017-12-22T07:14:37.132Z,102883.55
2017-12-22T07:17:04.861Z,102884.11
2017-12-22T07:19:32.544Z,102884.39
2017-12-22T07:22:00.284Z,102886.95
2017-12-22T07:24:27.920Z,102889.94
2017-12-22T07:26:55.681Z,102888.75
2017-12-22T07:29:23.396Z,102890.67
2017-12-22T07:31:51.140Z,102879.28
2017-12-22T07:34:18.776Z,102891.63
2017-12-22T07:36:46.526Z,102891.31
2017-12-22T07:39:14.220Z,102887.70
2017-12-22T07:41:42.005Z,102888.97
2017-12-22T07:44:09.706Z,102884.17
2017-12-22T07:46:37.463Z,102883.61
2017-12-22T07:49:05.083Z,102889.63
2017-12-22T07:51:32.752Z,102887.29
2017-12-22T07:54:00.443Z,102894.35
2017-12-22T07:56:28.154Z,102892.40
2017-12-22T07:58:55.858Z,102896.62
2017-12-22T08:01:23.755Z,102896.39
2017-12-22T08:03:54.977Z,102887.59
2017-12-22T08:06:22.822Z,102879.91
2017-12-22T08:08:50.483Z,102885.98
2017-12-22T08:11:18.164Z,102884.88
2017-12-22T08:13:45.801Z,102889.03
2017-12-22T08:16:13.459Z,102895.31
2017-12-22T08:18:41.093Z,102903.36
2017-12-22T08:21:08.787Z,102898.84
2017-12-22T08:23:36.472Z,102896.39
2017-12-22T08:26:04.248Z,102896.45
2017-12-22T08:28:31.948Z,102907.81
2017-12-22T08:30:59.676Z,102911.63
2017-12-22T08:33:27.381Z,102927.57
2017-12-22T08:35:55.129Z,102923.84
2017-12-22T08:38:22.832Z,102937.27
2017-12-22T08:40:50.567Z,102931.98
2017-12-22T08:43:18.276Z,102925.28
2017-12-22T08:45:46.034Z,102936.95
2017-12-22T08:48:13.725Z,102938.82
2017-12-22T08:50:41.457Z,102949.53
2017-12-22T08:53:09.132Z,102944.06
2017-12-22T08:55:36.862Z,102955.14
2017-12-22T08:58:05.053Z,102950.02
2017-12-22T09:00:33.133Z,102955.39
2017-12-22T09:03:00.855Z,102954.71
2017-12-22T09:05:28.481Z,102955.45
2017-12-22T09:07:56.207Z,102964.61
2017-12-22T09:10:23.872Z,102966.42
2017-12-22T09:12:51.560Z,102982.25
2017-12-22T09:15:19.280Z,102984.30
2017-12-22T09:17:47.033Z,102984.72
2017-12-22T09:20:14.655Z,102983.83
2017-12-22T09:22:42.417Z,102995.08
2017-12-22T09:25:10.071Z,102995.97
2017-12-22T09:27:37.833Z,102993.80
2017-12-22T09:30:05.571Z,102990.44
2017-12-22T09:32:33.308Z,102992.24
2017-12-22T09:35:01.008Z,102999.28
2017-12-22T09:37:28.749Z,103010.98
2017-12-22T09:39:56.445Z,103017.17
2017-12-22T09:42:24.181Z,103012.55
2017-12-22T09:44:52.398Z,103007.69
2017-12-22T09:47:20.081Z,103024.46
2017-12-22T09:49:47.864Z,103023.34
2017-12-22T09:52:15.604Z,103021.88
2017-12-22T09:54:43.292Z,103025.67
2017-12-22T09:57:11.044Z,103025.45
2017-12-22T09:59:38.760Z,103014.79
2017-12-22T10:02:06.423Z,103004.19
2017-12-22T10:04:34.144Z,103005.94
2017-12-22T10:07:01.840Z,103019.29
2017-12-22T10:09:29.742Z,103018.93
2017-12-22T10:11:57.475Z,103017.84
2017-12-22T10:14:25.165Z,103013.91
2017-12-22T10:16:52.903Z,103011.67
2017-12-22T10:19:20.601Z,102998.98
2017-12-22T10:21:48.380Z,102980.64
2017-12-22T10:24:16.097Z,102984.27
2017-12-22T10:26:43.799Z,102982.41
2017-12-22T10:29:11.488Z,102991.75
2017-12-22T10:31:39.169Z,102989.95
2017-12-22T10:34:06.792Z,102986.96
2017-12-22T10:36:34.535Z,102987.81
2017-12-22T10:39:02.262Z,102986.96
2017-12-22T10:41:29.947Z,102979.59
2017-12-22T10:43:57.634Z,102994.48
2017-12-22T10:46:25.329Z,102979.64
2017-12-22T10:48:53.090Z,102977.73
2017-12-22T10:51:20.782Z,102980.13
2017-12-22T10:53:48.459Z,102971.42
2017-12-22T10:56:16.176Z,102958.25
2017-12-22T10:58:43.907Z,102947.95
2017-12-22T11:01:11.564Z,102952.55
2017-12-22T11:03:39.309Z,102956.65
2017-12-22T11:06:06.996Z,102953.94
2017-12-22T11:08:34.660Z,102951.48
2017-12-22T11:11:02.366Z,102956.06
2017-12-22T11:13:30.103Z,102955.21
2017-12-22T11:15:57.758Z,102956.23
2017-12-22T11:18:25.435Z,102955.59
2017-12-22T11:20:53.133Z,102960.08
2017-12-22T11:23:20.812Z,102951.36
2017-12-22T11:25:48.514Z,102958.73
2017-12-22T11:28:16.254Z,102964.29
2017-12-22T11:30:43.960Z,102962.36
2017-12-22T11:33:14.984Z,102955.37
2017-12-22T11:35:42.662Z,102958.47
2017-12-22T11:38:10.399Z,102964.81
2017-12-22T11:40:38.082Z,102976.44
2017-12-22T11:43:05.827Z,102953.78
2017-12-22T11:45:33.514Z,102963.58
2017-12-22T11:48:01.199Z,102967.31
2017-12-22T11:50:28.897Z,102967.84
2017-12-22T11:52:56.681Z,102965.02
2017-12-22T11:55:24.380Z,102954.35
2017-12-22T11:57:52.147Z,102951.80
2017-12-22T12:00:19.762Z,102944.13
2017-12-22T12:02:47.444Z,102940.33
2017-12-22T12:05:15.132Z,102945.14
2017-12-22T12:07:42.867Z,102945.19
2017-12-22T12:10:10.477Z,102931.80
2017-12-22T12:12:38.145Z,102928.13
2017-12-22T12:15:05.817Z,102934.36
2017-12-22T12:17:33.536Z,102922.41
2017-12-22T12:20:01.167Z,102931.90
2017-12-22T12:22:28.907Z,102926.47
2017-12-22T12:24:56.595Z,102926.47
2017-12-22T12:27:24.289Z,102929.77
2017-12-22T12:29:51.949Z,102925.77
2017-12-22T12:32:19.641Z,102936.27
2017-12-22T12:34:47.367Z,102934.58
2017-12-22T12:37:15.070Z,102924.33
2017-12-22T12:39:42.823Z,102927.64
2017-12-22T12:42:10.497Z,102945.13
2017-12-22T12:44:38.769Z,102941.39
2017-12-22T12:47:06.456Z,102939.52
2017-12-22T12:49:34.178Z,102941.87
2017-12-22T12:52:01.852Z,102938.31
2017-12-22T12:54:29.580Z,102940.86
2017-12-22T12:56:57.212Z,102941.40
2017-12-22T12:59:24.969Z,102940.97
2017-12-22T13:01:52.694Z,102944.34
2017-12-22T13:04:20.452Z,102953.50
2017-12-22T13:06:48.157Z,102949.29
2017-12-22T13:09:15.864Z,102953.53
2017-12-22T13:11:43.541Z,102951.13
2017-12-22T13:14:11.227Z,102954.98
2017-12-22T13:16:38.889Z,102942.81
2017-12-22T13:19:06.571Z,102944.58
2017-12-22T13:21:34.277Z,102942.28
2017-12-22T13:24:02.035Z,102944.09
2017-12-22T13:26:29.727Z,102939.53
2017-12-22T13:28:57.610Z,102937.08
2017-12-22T13:31:25.325Z,102935.63
2017-12-22T13:33:53.013Z,102929.30
2017-12-22T13:36:20.695Z,102920.50
2017-12-22T13:38:48.461Z,102920.95
2017-12-22T13:41:16.150Z,102922.64
2017-12-22T13:43:43.875Z,102933.52
2017-12-22T13:46:11.534Z,102933.06
2017-12-22T13:48:39.224Z,102931.48
2017-12-22T13:51:06.921Z,102925.15
2017-12-22T13:53:34.661Z,102930.52
2017-12-22T13:56:02.359Z,102936.31
2017-12-22T13:58:30.025Z,102940.81
2017-12-22T14:00:57.653Z,102935.84
2017-12-22T14:03:25.335Z,102936.20
2017-12-22T14:05:53.071Z,102930.71
2017-12-22T14:08:20.777Z,102928.91
2017-12-22T14:10:48.535Z,102933.30
2017-12-22T14:13:16.256Z,102931.30
2017-12-22T14:15:43.985Z,102932.34
2017-12-22T14:18:11.678Z,102938.46
2017-12-22T14:20:39.434Z,102933.70
2017-12-22T14:23:07.146Z,102924.20
2017-12-22T14:25:34.817Z,102932.91
2017-12-22T14:28:02.447Z,102936.46
2017-12-22T14:30:30.194Z,102945.66
2017-12-22T14:32:57.868Z,102939.41
2017-12-22T14:35:25.541Z,102948.27
2017-12-22T14:37:53.188Z,102944.16
2017-12-22T14:40:20.922Z,102943.53
2017-12-22T14:42:48.556Z,102945.98
2017-12-22T14:45:16.237Z,102951.85
2017-12-22T14:47:43.941Z,102950.40
2017-12-22T14:50:11.612Z,102948.52
2017-12-22T14:52:39.232Z,102950.30
2017-12-22T14:55:06.902Z,102952.81
2017-12-22T14:57:34.530Z,102950.27
2017-12-22T15:00:02.201Z,102952.04
2017-12-22T15:02:29.822Z,102966.11
2017-12-22T15:04:57.518Z,102972.80
2017-12-22T15:07:25.153Z,102972.55
2017-12-22T15:09:52.817Z,102973.00
2017-12-22T15:12:20.516Z,102966.55
2017-12-22T15:14:48.209Z,102968.09
2017-12-22T15:17:15.849Z,102963.72
2017-12-22T15:19:43.512Z,102963.05
2017-12-22T15:22:11.144Z,102968.86
2017-12-22T15:24:38.844Z,102968.41
2017-12-22T15:27:06.474Z,102966.36
2017-12-22T15:29:34.177Z,102958.48
2017-12-22T15:32:01.815Z,102974.83
2017-12-22T15:34:29.488Z,102980.73
2017-12-22T15:36:57.128Z,102985.48
2017-12-22T15:39:24.869Z,102987.13
2017-12-22T15:41:52.555Z,102988.23
2017-12-22T15:44:20.245Z,102987.94
2017-12-22T15:46:47.969Z,102992.56
2017-12-22T15:49:15.694Z,102989.48
2017-12-22T15:51:43.429Z,102996.41
2017-12-22T15:54:11.052Z,102995.42
2017-12-22T15:56:38.838Z,102995.34
2017-12-22T15:59:06.530Z,102988.70
2017-12-22T16:01:34.386Z,103001.81
2017-12-22T16:04:02.090Z,102991.54
2017-12-22T16:06:29.806Z,102994.08
2017-12-22T16:08:57.440Z,102998.03
2017-12-22T16:11:25.104Z,103004.59
2017-12-22T16:13:52.748Z,103000.53
2017-12-22T16:16:20.481Z,102997.59
2017-12-22T16:18:48.121Z,102991.48
2017-12-22T16:21:15.798Z,102994.06
2017-12-22T16:23:43.432Z,102982.51
2017-12-22T16:26:11.107Z,102982.31
2017-12-22T16:28:38.766Z,102977.00
2017-12-22T16:31:06.444Z,102983.46
2017-12-22T16:33:34.076Z,102992.87
2017-12-22T16:36:01.748Z,102998.09
2017-12-22T16:38:31.326Z,103002.34
2017-12-22T16:40:59.124Z,102997.48
2017-12-22T16:43:27.170Z,102988.81
2017-12-22T16:45:54.965Z,102991.91
2017-12-22T16:48:22.656Z,102990.35
2017-12-22T16:50:50.332Z,102996.72
2017-12-22T16:53:18.006Z,103003.08
2017-12-22T16:55:45.851Z,103000.08
2017-12-22T16:58:13.464Z,102986.53
2017-12-22T17:00:41.139Z,102985.92
2017-12-22T17:03:08.767Z,102984.64
2017-12-22T17:05:36.483Z,102999.22
2017-12-22T17:08:04.119Z,102994.84
2017-12-22T17:10:31.793Z,102996.97
2017-12-22T17:12:59.444Z,102996.03
2017-12-22T17:15:27.135Z,103003.69
2017-12-22T17:17:54.811Z,102998.70
2017-12-22T17:20:22.541Z,103001.31
2017-12-22T17:22:50.188Z,102993.25
2017-12-22T17:25:17.882Z,102998.77
2017-12-22T17:27:45.679Z,102999.77
2017-12-22T17:30:13.333Z,102995.08
2017-12-22T17:32:41.135Z,103007.84
2017-12-22T17:35:08.784Z,103003.88
2017-12-22T17:37:36.457Z,102994.93
2017-12-22T17:40:04.096Z,102987.62
2017-12-22T17:42:31.783Z,102992.75
2017-12-22T17:44:59.454Z,103002.42
2017-12-22T17:47:27.172Z,103001.59
2017-12-22T17:49:54.858Z,103005.59
2017-12-22T17:52:22.557Z,103005.09
2017-12-22T17:54:50.189Z,103008.72
2017-12-22T17:57:18.007Z,103009.47
2017-12-22T17:59:45.734Z,103013.95
2017-12-22T18:02:13.449Z,103023.80
2017-12-22T18:04:41.067Z,103022.00
2017-12-22T18:07:08.850Z,103026.65
2017-12-22T18:09:36.571Z,103029.86
2017-12-22T18:12:04.329Z,103034.34
2017-12-22T18:14:32.012Z,103032.55
2017-12-22T18:16:59.740Z,103022.41
2017-12-22T18:19:27.505Z,103022.14
2017-12-22T18:21:55.307Z,103027.34
2017-12-22T18:24:23.049Z,103027.69
2017-12-22T18:26:50.829Z,103030.06
2017-12-22T18:29:18.549Z,103034.29
2017-12-22T18:31:46.281Z,103037.72
2017-12-22T18:34:13.973Z,103041.64
2017-12-22T18:36:41.780Z,103055.66
2017-12-22T18:39:09.559Z,103055.98
2017-12-22T18:41:37.370Z,103042.55
2017-12-22T18:44:05.081Z,103042.88
2017-12-22T18:46:32.824Z,103041.92
2017-12-22T18:49:00.525Z,103040.14
2017-12-22T18:51:28.272Z,103049.70
2017-12-22T18:53:56.040Z,103046.16
2017-12-22T18:56:23.769Z,103041.41
2017-12-22T18:58:51.440Z,103042.45
2017-12-22T19:01:19.179Z,103062.41
2017-12-22T19:03:46.908Z,103058.77
2017-12-22T19:06:14.608Z,103066.36
2017-12-22T19:08:42.329Z,103066.27
2017-12-22T19:11:10.023Z,103060.06
2017-12-22T19:13:37.750Z,103056.08
2017-12-22T19:16:05.444Z,103058.09
2017-12-22T19:18:33.176Z,103043.73
2017-12-22T19:21:00.823Z,103048.68
2017-12-22T19:23:28.549Z,103056.97
2017-12-22T19:25:56.255Z,103053.95
2017-12-22T19:28:23.982Z,103062.30
2017-12-22T19:30:51.617Z,103059.70
2017-12-22T19:33:19.300Z,103055.22
2017-12-22T19:35:46.980Z,103055.81
2017-12-22T19:38:14.767Z,103049.02
2017-12-22T19:40:42.494Z,103041.06
2017-12-22T19:43:10.246Z,103052.88
2017-12-22T19:45:38.004Z,103052.66
2017-12-22T19:48:05.701Z,103046.23
2017-12-22T19:50:33.392Z,103031.52
2017-12-22T19:53:01.126Z,103032.91
2017-12-22T19:55:28.856Z,103042.20
2017-12-22T19:57:56.688Z,103044.36
2017-12-22T20:00:24.366Z,103040.66
2017-12-22T20:02:52.128Z,103046.10
2017-12-22T20:05:19.810Z,103048.48
2017-12-22T20:07:47.551Z,103048.00
2017-12-22T20:10:15.230Z,103047.91
2017-12-22T20:12:42.969Z,103057.06
2017-12-22T20:15:10.727Z,103054.13
2017-12-22T20:17:38.455Z,103058.75
2017-12-22T20:20:06.158Z,103051.80
2017-12-22T20:22:33.971Z,103047.13
2017-12-22T20:25:01.671Z,103043.84
2017-12-22T20:27:29.489Z,103037.78
2017-12-22T20:29:57.173Z,103044.64
2017-12-22T20:32:24.955Z,103037.13
2017-12-22T20:34:52.636Z,103049.45
2017-12-22T20:37:20.354Z,103043.43
2017-12-22T20:39:48.041Z,103040.82
2017-12-22T20:42:15.779Z,103041.14
2017-12-22T20:44:43.518Z,103036.44
2017-12-22T20:47:11.237Z,103025.19
2017-12-22T20:49:38.959Z,103015.71
2017-12-22T20:52:06.646Z,103015.47
2017-12-22T20:54:34.443Z,103013.91
2017-12-22T20:57:02.191Z,103013.27
2017-12-22T20:59:30.001Z,103028.98
2017-12-22T21:01:57.807Z,103021.08
2017-12-22T21:04:25.541Z,103022.36
2017-12-22T21:06:53.221Z,103029.02
2017-12-22T21:09:20.938Z,103023.50
2017-12-22T21:11:48.613Z,103017.69
2017-12-22T21:14:16.337Z,103002.58
2017-12-22T21:16:44.111Z,103001.04
2017-12-22T21:19:11.849Z,103008.77
2017-12-22T21:21:39.604Z,103005.45
2017-12-22T21:24:07.346Z,103011.03
2017-12-22T21:26:35.099Z,103015.46
2017-12-22T21:29:02.792Z,103011.72
2017-12-22T21:31:30.535Z,102997.75
2017-12-22T21:33:58.305Z,102998.95
2017-12-22T21:36:26.027Z,103000.88
2017-12-22T21:38:53.811Z,103003.91
2017-12-22T21:41:21.500Z,103009.67
2017-12-22T21:43:49.201Z,103003.00
2017-12-22T21:46:16.893Z,102991.63
2017-12-22T21:48:44.651Z,103001.75
2017-12-22T21:51:12.345Z,102989.98
2017-12-22T21:53:40.070Z,102991.47
2017-12-22T21:56:07.730Z,102996.70
2017-12-22T21:58:35.489Z,102992.23
2017-12-22T22:01:03.164Z,102996.48
2017-12-22T22:03:31.046Z,103004.52
2017-12-22T22:05:58.805Z,103007.48
2017-12-22T22:08:26.526Z,103019.77
2017-12-22T22:10:54.218Z,103019.73
2017-12-22T22:13:21.950Z,103017.93
2017-12-22T22:15:49.627Z,103014.00
2017-12-22T22:18:17.352Z,103009.56
2017-12-22T22:20:45.023Z,103003.95
2017-12-22T22:23:12.758Z,103002.78
2017-12-22T22:25:40.510Z,102995.27
2017-12-22T22:28:08.184Z,102988.87
2017-12-22T22:30:35.911Z,102990.77
2017-12-22T22:33:03.650Z,102994.45
2017-12-22T22:35:31.361Z,102989.46
2017-12-22T22:37:59.035Z,102991.38
2017-12-22T22:40:26.823Z,102992.33
2017-12-22T22:42:54.520Z,102993.79
2017-12-22T22:45:22.284Z,102987.63
2017-12-22T22:47:50.056Z,102974.11
2017-12-22T22:50:17.825Z,102968.38
2017-12-22T22:52:45.811Z,102966.22
2017-12-22T22:55:13.596Z,102959.30
2017-12-22T22:57:41.336Z,102943.62
2017-12-22T23:00:09.066Z,102939.69
2017-12-22T23:02:36.796Z,102941.01
2017-12-22T23:05:04.459Z,102939.63
2017-12-22T23:07:32.145Z,102930.88
2017-12-22T23:10:00.694Z,102933.62
2017-12-22T23:12:28.316Z,102926.11
2017-12-22T23:14:56.044Z,102925.13
2017-12-22T23:17:23.719Z,102922.90
2017-12-22T23:19:51.391Z,102916.84
2017-12-22T23:22:19.061Z,102914.08
2017-12-22T23:24:46.903Z,102913.05
2017-12-22T23:27:14.589Z,102909.52
2017-12-22T23:29:42.388Z,102908.56
2017-12-22T23:32:10.064Z,102898.46
2017-12-22T23:34:37.780Z,102908.03
2017-12-22T23:37:05.465Z,102902.15
2017-12-22T23:39:33.267Z,102900.66
2017-12-22T23:42:00.944Z,102896.16
2017-12-22T23:44:28.688Z,102895.49
2017-12-22T23:46:56.446Z,102889.33
2017-12-22T23:49:24.188Z,102888.02
2017-12-22T23:51:51.835Z,102885.85
2017-12-22T23:54:19.504Z,102881.89
2017-12-22T23:56:47.191Z,102878.41
2017-12-22T23:59:14.979Z,102875.65
